DCSAG BIKF-CYYT
Flight info
| Callsign | DCSAG |
|---|---|
| Flight time | 3h 50m |
| Altitude | 43000 |
| Route | DELES3D DELES DCT 62N030W 60N035W 57N040W 54N045W 50N050W DCT MIVAD AVALN5 |
| Aircraft | E55P/M-SBDFGHJ2RWY/LB2 |
Departure
| Time | 2026-04-18 05:13 |
|---|---|
| Airport | Keflavik International Airport (BIKF) |
Arrival
| Time | 2026-04-18 09:03 |
|---|---|
| Airport | St. John's International Airport (CYYT) |
| Time | Latitude | Longitude | Altitude | Speed | Heading |
|---|---|---|---|---|---|
| 2026-04-18 04:56 | 63.97698 | -22.58893 | 175 ft | 0 kts | 109° |
| 2026-04-18 05:07 | 63.97698 | -22.58892 | 175 ft | 0 kts | 109° |
| 2026-04-18 05:08 | 63.97697 | -22.58876 | 175 ft | 3 kts | 79° |
| 2026-04-18 05:08 | 63.97717 | -22.58870 | 175 ft | 4 kts | 300° |
| 2026-04-18 05:08 | 63.97716 | -22.58941 | 175 ft | 5 kts | 264° |
| 2026-04-18 05:09 | 63.97717 | -22.59029 | 175 ft | 6 kts | 283° |
| 2026-04-18 05:09 | 63.97749 | -22.59088 | 175 ft | 7 kts | 9° |
| 2026-04-18 05:09 | 63.97797 | -22.59056 | 175 ft | 6 kts | 19° |
| 2026-04-18 05:09 | 63.97843 | -22.59023 | 175 ft | 8 kts | 14° |
| 2026-04-18 05:10 | 63.97901 | -22.58988 | 175 ft | 9 kts | 16° |
| 2026-04-18 05:10 | 63.97956 | -22.58950 | 175 ft | 8 kts | 17° |
| 2026-04-18 05:10 | 63.98003 | -22.58917 | 175 ft | 7 kts | 17° |
| 2026-04-18 05:10 | 63.98049 | -22.58912 | 175 ft | 7 kts | 338° |
| 2026-04-18 05:11 | 63.98091 | -22.58957 | 175 ft | 8 kts | 333° |
| 2026-04-18 05:11 | 63.98148 | -22.59023 | 175 ft | 11 kts | 333° |
| 2026-04-18 05:11 | 63.98226 | -22.59105 | 175 ft | 14 kts | 339° |
| 2026-04-18 05:11 | 63.98321 | -22.59194 | 175 ft | 14 kts | 336° |
| 2026-04-18 05:12 | 63.98403 | -22.59265 | 175 ft | 11 kts | 348° |
| 2026-04-18 05:12 | 63.98470 | -22.59280 | 175 ft | 8 kts | 358° |
| 2026-04-18 05:12 | 63.98505 | -22.59331 | 175 ft | 5 kts | 272° |
| 2026-04-18 05:12 | 63.98504 | -22.59399 | 175 ft | 8 kts | 269° |
| 2026-04-18 05:13 | 63.98504 | -22.59867 | 175 ft | 65 kts | 272° |
| 2026-04-18 05:13 | 63.98513 | -22.61467 | 281 ft | 126 kts | 271° |
| 2026-04-18 05:13 | 63.98534 | -22.63474 | 1210 ft | 128 kts | 268° |
| 2026-04-18 05:13 | 63.98493 | -22.65551 | 2109 ft | 139 kts | 270° |
| 2026-04-18 05:14 | 63.98489 | -22.67869 | 2929 ft | 149 kts | 271° |
| 2026-04-18 05:14 | 63.98490 | -22.70415 | 3742 ft | 169 kts | 270° |
| 2026-04-18 05:14 | 63.98497 | -22.73176 | 4692 ft | 191 kts | 270° |
| 2026-04-18 05:14 | 63.98410 | -22.76395 | 5589 ft | 199 kts | 255° |
| 2026-04-18 05:15 | 63.97931 | -22.79341 | 6707 ft | 214 kts | 246° |
| 2026-04-18 05:15 | 63.97182 | -22.82685 | 7189 ft | 238 kts | 240° |
| 2026-04-18 05:15 | 63.96385 | -22.85806 | 8651 ft | 234 kts | 239° |
| 2026-04-18 05:15 | 63.95476 | -22.89269 | 8964 ft | 264 kts | 238° |
| 2026-04-18 05:16 | 63.94535 | -22.92824 | 10011 ft | 269 kts | 238° |
| 2026-04-18 05:16 | 63.93549 | -22.96532 | 10481 ft | 290 kts | 238° |
| 2026-04-18 05:16 | 63.92450 | -23.00661 | 10796 ft | 310 kts | 238° |
| 2026-04-18 05:16 | 63.91285 | -23.05036 | 10926 ft | 336 kts | 238° |
| 2026-04-18 05:17 | 63.90151 | -23.09314 | 12723 ft | 300 kts | 238° |
| 2026-04-18 05:17 | 63.89055 | -23.13446 | 13388 ft | 310 kts | 238° |
| 2026-04-18 05:17 | 63.87937 | -23.17644 | 14124 ft | 311 kts | 238° |
| 2026-04-18 05:17 | 63.86810 | -23.21865 | 14816 ft | 314 kts | 238° |
| 2026-04-18 05:18 | 63.85674 | -23.26110 | 15478 ft | 316 kts | 238° |
| 2026-04-18 05:18 | 63.84525 | -23.30401 | 16137 ft | 318 kts | 238° |
| 2026-04-18 05:18 | 63.83386 | -23.34647 | 16753 ft | 320 kts | 239° |
| 2026-04-18 05:18 | 63.82211 | -23.39020 | 17377 ft | 322 kts | 239° |
| 2026-04-18 05:19 | 63.81055 | -23.43317 | 17945 ft | 324 kts | 239° |
| 2026-04-18 05:19 | 63.79880 | -23.47672 | 18494 ft | 326 kts | 239° |
| 2026-04-18 05:19 | 63.78694 | -23.52065 | 19031 ft | 328 kts | 239° |
| 2026-04-18 05:19 | 63.77498 | -23.56486 | 19539 ft | 330 kts | 239° |
| 2026-04-18 05:20 | 63.76291 | -23.60938 | 20016 ft | 333 kts | 239° |
| 2026-04-18 05:20 | 63.75076 | -23.65409 | 20487 ft | 335 kts | 239° |
| 2026-04-18 05:20 | 63.73850 | -23.69918 | 20928 ft | 338 kts | 239° |
| 2026-04-18 05:20 | 63.72615 | -23.74447 | 21369 ft | 340 kts | 239° |
| 2026-04-18 05:21 | 63.71384 | -23.78950 | 21792 ft | 341 kts | 239° |
| 2026-04-18 05:21 | 63.70135 | -23.83510 | 22210 ft | 343 kts | 239° |
| 2026-04-18 05:21 | 63.68872 | -23.88112 | 22597 ft | 345 kts | 239° |
| 2026-04-18 05:21 | 63.68015 | -23.91230 | 22856 ft | 347 kts | 239° |
| 2026-04-18 05:22 | 63.66755 | -23.95804 | 23213 ft | 349 kts | 239° |
| 2026-04-18 05:22 | 63.65464 | -24.00481 | 23571 ft | 351 kts | 239° |
| 2026-04-18 05:22 | 63.64172 | -24.05152 | 23940 ft | 352 kts | 239° |
| 2026-04-18 05:22 | 63.62887 | -24.09786 | 24262 ft | 354 kts | 239° |
| 2026-04-18 05:23 | 63.61578 | -24.14504 | 24564 ft | 356 kts | 239° |
| 2026-04-18 05:23 | 63.60259 | -24.19246 | 24877 ft | 358 kts | 239° |
| 2026-04-18 05:23 | 63.58932 | -24.24003 | 25152 ft | 360 kts | 238° |
| 2026-04-18 05:23 | 63.57595 | -24.28790 | 25443 ft | 362 kts | 238° |
| 2026-04-18 05:24 | 63.56248 | -24.33598 | 25700 ft | 364 kts | 238° |
| 2026-04-18 05:24 | 63.55228 | -24.37232 | 25936 ft | 365 kts | 238° |
| 2026-04-18 05:24 | 63.53972 | -24.41697 | 26159 ft | 367 kts | 238° |
| 2026-04-18 05:24 | 63.52605 | -24.46548 | 26419 ft | 369 kts | 237° |
| 2026-04-18 05:25 | 63.51240 | -24.51440 | 26704 ft | 369 kts | 238° |
| 2026-04-18 05:25 | 63.49943 | -24.56332 | 26921 ft | 372 kts | 239° |
| 2026-04-18 05:25 | 63.48656 | -24.61358 | 27175 ft | 373 kts | 240° |
| 2026-04-18 05:25 | 63.47381 | -24.66431 | 27411 ft | 374 kts | 240° |
| 2026-04-18 05:26 | 63.46110 | -24.71539 | 27640 ft | 376 kts | 240° |
| 2026-04-18 05:26 | 63.44836 | -24.76683 | 27859 ft | 377 kts | 240° |
| 2026-04-18 05:26 | 63.43564 | -24.81825 | 28066 ft | 379 kts | 240° |
| 2026-04-18 05:26 | 63.42287 | -24.86989 | 28270 ft | 380 kts | 240° |
| 2026-04-18 05:27 | 63.41005 | -24.92172 | 28471 ft | 382 kts | 240° |
| 2026-04-18 05:27 | 63.39715 | -24.97373 | 28667 ft | 383 kts | 240° |
| 2026-04-18 05:27 | 63.38423 | -25.02578 | 28855 ft | 384 kts | 240° |
| 2026-04-18 05:27 | 63.37138 | -25.07738 | 29007 ft | 386 kts | 240° |
| 2026-04-18 05:28 | 63.35814 | -25.13048 | 29192 ft | 388 kts | 240° |
| 2026-04-18 05:28 | 63.34516 | -25.18240 | 29369 ft | 389 kts | 239° |
| 2026-04-18 05:28 | 63.33180 | -25.23574 | 29545 ft | 390 kts | 239° |
| 2026-04-18 05:28 | 63.31869 | -25.28791 | 29709 ft | 392 kts | 239° |
| 2026-04-18 05:29 | 63.30536 | -25.34089 | 29853 ft | 393 kts | 239° |
| 2026-04-18 05:29 | 63.29212 | -25.39336 | 30458 ft | 382 kts | 239° |
| 2026-04-18 05:29 | 63.27910 | -25.44492 | 30650 ft | 384 kts | 239° |
| 2026-04-18 05:29 | 63.26595 | -25.49676 | 30805 ft | 386 kts | 239° |
| 2026-04-18 05:30 | 63.25270 | -25.54890 | 30975 ft | 387 kts | 239° |
| 2026-04-18 05:30 | 63.23936 | -25.60125 | 31141 ft | 389 kts | 239° |
| 2026-04-18 05:30 | 63.22600 | -25.65356 | 31302 ft | 390 kts | 239° |
| 2026-04-18 05:30 | 63.21256 | -25.70608 | 31451 ft | 392 kts | 239° |
| 2026-04-18 05:31 | 63.19909 | -25.75857 | 31608 ft | 393 kts | 239° |
| 2026-04-18 05:31 | 63.18552 | -25.81133 | 31759 ft | 394 kts | 239° |
| 2026-04-18 05:31 | 63.17186 | -25.86433 | 31901 ft | 396 kts | 239° |
| 2026-04-18 05:31 | 63.15832 | -25.91673 | 32045 ft | 397 kts | 238° |
| 2026-04-18 05:32 | 63.14456 | -25.96985 | 32210 ft | 398 kts | 238° |
| 2026-04-18 05:32 | 63.13076 | -26.02303 | 32361 ft | 399 kts | 238° |
| 2026-04-18 05:32 | 63.11716 | -26.07532 | 33032 ft | 386 kts | 238° |
| 2026-04-18 05:32 | 63.10378 | -26.12670 | 33134 ft | 388 kts | 238° |
| 2026-04-18 05:33 | 63.09024 | -26.17851 | 33284 ft | 390 kts | 238° |
| 2026-04-18 05:33 | 63.07664 | -26.23039 | 33420 ft | 391 kts | 238° |
| 2026-04-18 05:33 | 63.06296 | -26.28247 | 33559 ft | 392 kts | 238° |
| 2026-04-18 05:33 | 63.04921 | -26.33463 | 33692 ft | 394 kts | 238° |
| 2026-04-18 05:34 | 63.03542 | -26.38690 | 33811 ft | 395 kts | 238° |
| 2026-04-18 05:34 | 63.02153 | -26.43938 | 33942 ft | 397 kts | 238° |
| 2026-04-18 05:34 | 63.00759 | -26.49195 | 34074 ft | 398 kts | 238° |
| 2026-04-18 05:34 | 62.99361 | -26.54454 | 34214 ft | 398 kts | 238° |
| 2026-04-18 05:35 | 62.97958 | -26.59723 | 34362 ft | 399 kts | 238° |
| 2026-04-18 05:35 | 62.96551 | -26.64993 | 34481 ft | 400 kts | 238° |
| 2026-04-18 05:35 | 62.93716 | -26.75570 | 34702 ft | 403 kts | 238° |
| 2026-04-18 05:36 | 62.92288 | -26.80880 | 34825 ft | 404 kts | 238° |
| 2026-04-18 05:36 | 62.90856 | -26.86193 | 34947 ft | 405 kts | 238° |
| 2026-04-18 05:36 | 62.89448 | -26.91412 | 35608 ft | 391 kts | 238° |
| 2026-04-18 05:36 | 62.88054 | -26.96566 | 35675 ft | 394 kts | 237° |
| 2026-04-18 05:37 | 62.86649 | -27.01743 | 35793 ft | 395 kts | 237° |
| 2026-04-18 05:37 | 62.85243 | -27.06909 | 35924 ft | 396 kts | 237° |
| 2026-04-18 05:37 | 62.83828 | -27.12096 | 36032 ft | 397 kts | 237° |
| 2026-04-18 05:37 | 62.82407 | -27.17292 | 36153 ft | 398 kts | 237° |
| 2026-04-18 05:38 | 62.80998 | -27.22436 | 36268 ft | 399 kts | 237° |
| 2026-04-18 05:38 | 62.79567 | -27.27645 | 36378 ft | 400 kts | 237° |
| 2026-04-18 05:38 | 62.78130 | -27.32866 | 36490 ft | 401 kts | 237° |
| 2026-04-18 05:38 | 62.76686 | -27.38101 | 36593 ft | 402 kts | 237° |
| 2026-04-18 05:39 | 62.75240 | -27.43330 | 36699 ft | 403 kts | 237° |
| 2026-04-18 05:39 | 62.73786 | -27.48577 | 36813 ft | 404 kts | 237° |
| 2026-04-18 05:39 | 62.70861 | -27.59093 | 37022 ft | 406 kts | 237° |
| 2026-04-18 05:40 | 62.67920 | -27.69619 | 37200 ft | 408 kts | 237° |
| 2026-04-18 05:40 | 62.64982 | -27.80090 | 37905 ft | 395 kts | 237° |
| 2026-04-18 05:41 | 62.62098 | -27.90321 | 38088 ft | 398 kts | 237° |
| 2026-04-18 05:41 | 62.60643 | -27.95462 | 38191 ft | 399 kts | 237° |
| 2026-04-18 05:41 | 62.59189 | -28.00587 | 38293 ft | 400 kts | 237° |
| 2026-04-18 05:42 | 62.57721 | -28.05750 | 38414 ft | 401 kts | 236° |
| 2026-04-18 05:42 | 62.56253 | -28.10900 | 38504 ft | 402 kts | 236° |
| 2026-04-18 05:42 | 62.53303 | -28.21217 | 38689 ft | 404 kts | 236° |
| 2026-04-18 05:43 | 62.50321 | -28.31599 | 38844 ft | 406 kts | 236° |
| 2026-04-18 05:43 | 62.47321 | -28.41998 | 39018 ft | 408 kts | 236° |
| 2026-04-18 05:44 | 62.44319 | -28.52352 | 39187 ft | 410 kts | 236° |
| 2026-04-18 05:44 | 62.41283 | -28.62781 | 39342 ft | 411 kts | 236° |
| 2026-04-18 05:45 | 62.38224 | -28.73243 | 39507 ft | 412 kts | 236° |
| 2026-04-18 05:45 | 62.35153 | -28.83693 | 39654 ft | 414 kts | 236° |
| 2026-04-18 05:46 | 62.32056 | -28.94182 | 39731 ft | 415 kts | 236° |
| 2026-04-18 05:46 | 62.28946 | -29.04666 | 39731 ft | 416 kts | 236° |
| 2026-04-18 05:47 | 62.25821 | -29.15154 | 39728 ft | 417 kts | 235° |
| 2026-04-18 05:47 | 62.22680 | -29.25648 | 39732 ft | 417 kts | 235° |
| 2026-04-18 05:48 | 62.19533 | -29.36113 | 39736 ft | 418 kts | 235° |
| 2026-04-18 05:48 | 62.16373 | -29.46575 | 39733 ft | 418 kts | 235° |
| 2026-04-18 05:49 | 62.13205 | -29.57014 | 39729 ft | 419 kts | 235° |
| 2026-04-18 05:49 | 62.10026 | -29.67440 | 39725 ft | 419 kts | 235° |
| 2026-04-18 05:50 | 62.06838 | -29.77846 | 39721 ft | 419 kts | 235° |
| 2026-04-18 05:50 | 62.03646 | -29.88219 | 39754 ft | 418 kts | 235° |
| 2026-04-18 05:51 | 62.00382 | -29.98482 | 39760 ft | 418 kts | 233° |
| 2026-04-18 05:51 | 61.96943 | -30.08464 | 39757 ft | 418 kts | 232° |
| 2026-04-18 05:52 | 61.93459 | -30.18252 | 39755 ft | 418 kts | 231° |
| 2026-04-18 05:52 | 61.89926 | -30.28044 | 39752 ft | 417 kts | 231° |
| 2026-04-18 05:53 | 61.86379 | -30.37807 | 39750 ft | 417 kts | 231° |
| 2026-04-18 05:53 | 61.82833 | -30.47523 | 39747 ft | 417 kts | 231° |
| 2026-04-18 05:54 | 61.79300 | -30.57161 | 39745 ft | 416 kts | 231° |
| 2026-04-18 05:54 | 61.75745 | -30.66823 | 39743 ft | 416 kts | 231° |
| 2026-04-18 05:55 | 61.72171 | -30.76497 | 39731 ft | 415 kts | 231° |
| 2026-04-18 05:55 | 61.68635 | -30.86028 | 39724 ft | 415 kts | 231° |
| 2026-04-18 05:56 | 61.65077 | -30.95580 | 39723 ft | 414 kts | 231° |
| 2026-04-18 05:56 | 61.61506 | -31.05133 | 39721 ft | 414 kts | 231° |
| 2026-04-18 05:57 | 61.56152 | -31.19375 | 39718 ft | 414 kts | 231° |
| 2026-04-18 05:58 | 61.52573 | -31.28848 | 39717 ft | 414 kts | 230° |
| 2026-04-18 05:58 | 61.48991 | -31.38291 | 39715 ft | 413 kts | 230° |
| 2026-04-18 05:59 | 61.45424 | -31.47651 | 39713 ft | 413 kts | 230° |
| 2026-04-18 05:59 | 61.41826 | -31.57057 | 39711 ft | 413 kts | 230° |
| 2026-04-18 06:00 | 61.38834 | -31.64849 | 39710 ft | 413 kts | 230° |
| 2026-04-18 06:00 | 61.35268 | -31.74102 | 40442 ft | 396 kts | 230° |
| 2026-04-18 06:01 | 61.31795 | -31.83081 | 40600 ft | 399 kts | 230° |
| 2026-04-18 06:01 | 61.28302 | -31.92070 | 40766 ft | 400 kts | 230° |
| 2026-04-18 06:02 | 61.24805 | -32.01033 | 40938 ft | 402 kts | 230° |
| 2026-04-18 06:02 | 61.21277 | -32.10042 | 41086 ft | 403 kts | 230° |
| 2026-04-18 06:03 | 61.17722 | -32.19085 | 41242 ft | 404 kts | 230° |
| 2026-04-18 06:03 | 61.14155 | -32.28124 | 41387 ft | 406 kts | 230° |
| 2026-04-18 06:04 | 61.10566 | -32.37182 | 41508 ft | 407 kts | 230° |
| 2026-04-18 06:04 | 61.06963 | -32.46241 | 41640 ft | 408 kts | 230° |
| 2026-04-18 06:05 | 61.03352 | -32.55283 | 42157 ft | 398 kts | 230° |
| 2026-04-18 06:05 | 61.01589 | -32.59689 | 42278 ft | 398 kts | 229° |
| 2026-04-18 06:05 | 60.99836 | -32.64059 | 42509 ft | 395 kts | 229° |
| 2026-04-18 06:05 | 60.98090 | -32.68403 | 42641 ft | 394 kts | 229° |
| 2026-04-18 06:06 | 60.96334 | -32.72761 | 42697 ft | 395 kts | 229° |
| 2026-04-18 06:06 | 60.92820 | -32.81457 | 42710 ft | 396 kts | 229° |
| 2026-04-18 06:07 | 60.89282 | -32.90182 | 42710 ft | 398 kts | 229° |
| 2026-04-18 06:07 | 60.85748 | -32.98861 | 42709 ft | 399 kts | 229° |
| 2026-04-18 06:08 | 60.82171 | -33.07614 | 42708 ft | 401 kts | 229° |
| 2026-04-18 06:08 | 60.78575 | -33.16381 | 42708 ft | 402 kts | 229° |
| 2026-04-18 06:09 | 60.74961 | -33.25159 | 42707 ft | 403 kts | 229° |
| 2026-04-18 06:09 | 60.71333 | -33.33937 | 42707 ft | 405 kts | 229° |
| 2026-04-18 06:10 | 60.67690 | -33.42718 | 42706 ft | 405 kts | 229° |
| 2026-04-18 06:10 | 60.64055 | -33.51446 | 42706 ft | 406 kts | 229° |
| 2026-04-18 06:11 | 60.60361 | -33.60281 | 42705 ft | 407 kts | 229° |
| 2026-04-18 06:11 | 60.56706 | -33.68990 | 42705 ft | 407 kts | 229° |
| 2026-04-18 06:12 | 60.53019 | -33.77740 | 42705 ft | 407 kts | 229° |
| 2026-04-18 06:12 | 60.49318 | -33.86491 | 42704 ft | 408 kts | 229° |
| 2026-04-18 06:13 | 60.45617 | -33.95209 | 42704 ft | 408 kts | 229° |
| 2026-04-18 06:13 | 60.41928 | -34.03863 | 42704 ft | 408 kts | 229° |
| 2026-04-18 06:14 | 60.38209 | -34.12556 | 42704 ft | 408 kts | 229° |
| 2026-04-18 06:14 | 60.34492 | -34.21214 | 42704 ft | 408 kts | 229° |
| 2026-04-18 06:15 | 60.30762 | -34.29866 | 42704 ft | 408 kts | 229° |
| 2026-04-18 06:15 | 60.27026 | -34.38501 | 42704 ft | 408 kts | 228° |
| 2026-04-18 06:16 | 60.23276 | -34.47134 | 42704 ft | 408 kts | 228° |
| 2026-04-18 06:16 | 60.19522 | -34.55744 | 42704 ft | 409 kts | 228° |
| 2026-04-18 06:17 | 60.15793 | -34.64265 | 42704 ft | 409 kts | 228° |
| 2026-04-18 06:17 | 60.12030 | -34.72831 | 42704 ft | 409 kts | 228° |
| 2026-04-18 06:18 | 60.08257 | -34.81387 | 42705 ft | 409 kts | 228° |
| 2026-04-18 06:18 | 60.04477 | -34.89926 | 42705 ft | 410 kts | 228° |
| 2026-04-18 06:19 | 60.00616 | -34.98334 | 42706 ft | 410 kts | 226° |
| 2026-04-18 06:19 | 59.96575 | -35.06312 | 42706 ft | 410 kts | 225° |
| 2026-04-18 06:20 | 59.92433 | -35.14171 | 42707 ft | 411 kts | 224° |
| 2026-04-18 06:20 | 59.88261 | -35.21969 | 42707 ft | 411 kts | 224° |
| 2026-04-18 06:21 | 59.84079 | -35.29728 | 42708 ft | 411 kts | 224° |
| 2026-04-18 06:21 | 59.79888 | -35.37472 | 42708 ft | 411 kts | 224° |
| 2026-04-18 06:22 | 59.75696 | -35.45191 | 42709 ft | 411 kts | 224° |
| 2026-04-18 06:22 | 59.71494 | -35.52901 | 42710 ft | 411 kts | 224° |
| 2026-04-18 06:23 | 59.67287 | -35.60596 | 42710 ft | 411 kts | 224° |
| 2026-04-18 06:23 | 59.63105 | -35.68217 | 42711 ft | 412 kts | 223° |
| 2026-04-18 06:24 | 59.58859 | -35.75927 | 42712 ft | 412 kts | 223° |
| 2026-04-18 06:24 | 59.54665 | -35.83518 | 42713 ft | 412 kts | 223° |
| 2026-04-18 06:25 | 59.50435 | -35.91147 | 42713 ft | 412 kts | 223° |
| 2026-04-18 06:25 | 59.46205 | -35.98748 | 42714 ft | 412 kts | 223° |
| 2026-04-18 06:26 | 59.41961 | -36.06348 | 42715 ft | 412 kts | 223° |
| 2026-04-18 06:26 | 59.37721 | -36.13914 | 42716 ft | 412 kts | 223° |
| 2026-04-18 06:27 | 59.33468 | -36.21477 | 42717 ft | 412 kts | 223° |
| 2026-04-18 06:27 | 59.29236 | -36.28975 | 42718 ft | 412 kts | 223° |
| 2026-04-18 06:28 | 59.24979 | -36.36491 | 42719 ft | 412 kts | 223° |
| 2026-04-18 06:28 | 59.20721 | -36.43984 | 42720 ft | 411 kts | 223° |
| 2026-04-18 06:29 | 59.16462 | -36.51452 | 42720 ft | 411 kts | 223° |
| 2026-04-18 06:29 | 59.12201 | -36.58898 | 42721 ft | 411 kts | 223° |
| 2026-04-18 06:30 | 59.07940 | -36.66317 | 42722 ft | 411 kts | 223° |
| 2026-04-18 06:30 | 59.03672 | -36.73722 | 42723 ft | 410 kts | 223° |
| 2026-04-18 06:31 | 58.99387 | -36.81131 | 42725 ft | 410 kts | 223° |
| 2026-04-18 06:31 | 58.95118 | -36.88487 | 42726 ft | 410 kts | 223° |
| 2026-04-18 06:32 | 58.90846 | -36.95823 | 42727 ft | 410 kts | 223° |
| 2026-04-18 06:32 | 58.86605 | -37.03081 | 42728 ft | 409 kts | 223° |
| 2026-04-18 06:33 | 58.82333 | -37.10366 | 42729 ft | 409 kts | 223° |
| 2026-04-18 06:33 | 58.78058 | -37.17633 | 42689 ft | 410 kts | 223° |
| 2026-04-18 06:34 | 58.73765 | -37.24905 | 42573 ft | 411 kts | 223° |
| 2026-04-18 06:34 | 58.69472 | -37.32153 | 42542 ft | 410 kts | 223° |
| 2026-04-18 06:35 | 58.65185 | -37.39364 | 42540 ft | 409 kts | 223° |
| 2026-04-18 06:35 | 58.60898 | -37.46551 | 42540 ft | 408 kts | 223° |
| 2026-04-18 06:36 | 58.56640 | -37.53666 | 42541 ft | 407 kts | 223° |
| 2026-04-18 06:36 | 58.52361 | -37.60792 | 42541 ft | 407 kts | 223° |
| 2026-04-18 06:37 | 58.48085 | -37.67890 | 42542 ft | 407 kts | 223° |
| 2026-04-18 06:37 | 58.44530 | -37.73772 | 42542 ft | 407 kts | 223° |
| 2026-04-18 06:38 | 58.40244 | -37.80843 | 42543 ft | 406 kts | 223° |
| 2026-04-18 06:38 | 58.35959 | -37.87888 | 42543 ft | 406 kts | 223° |
| 2026-04-18 06:39 | 58.31681 | -37.94898 | 42543 ft | 405 kts | 223° |
| 2026-04-18 06:39 | 58.27398 | -38.01894 | 42544 ft | 405 kts | 223° |
| 2026-04-18 06:40 | 58.23118 | -38.08862 | 42545 ft | 405 kts | 223° |
| 2026-04-18 06:40 | 58.18832 | -38.15817 | 42545 ft | 405 kts | 222° |
| 2026-04-18 06:41 | 58.14546 | -38.22748 | 42546 ft | 405 kts | 222° |
| 2026-04-18 06:41 | 58.10255 | -38.29665 | 42546 ft | 405 kts | 222° |
| 2026-04-18 06:42 | 58.05990 | -38.36518 | 42547 ft | 405 kts | 222° |
| 2026-04-18 06:42 | 58.01686 | -38.43410 | 42548 ft | 405 kts | 222° |
| 2026-04-18 06:43 | 57.97383 | -38.50278 | 42548 ft | 405 kts | 222° |
| 2026-04-18 06:43 | 57.93071 | -38.57139 | 42549 ft | 405 kts | 222° |
| 2026-04-18 06:44 | 57.88768 | -38.63964 | 42550 ft | 405 kts | 222° |
| 2026-04-18 06:44 | 57.84484 | -38.70735 | 42550 ft | 405 kts | 222° |
| 2026-04-18 06:45 | 57.80172 | -38.77530 | 42551 ft | 404 kts | 222° |
| 2026-04-18 06:45 | 57.75855 | -38.84310 | 42552 ft | 404 kts | 222° |
| 2026-04-18 06:46 | 57.71568 | -38.91020 | 42553 ft | 404 kts | 222° |
| 2026-04-18 06:46 | 57.67262 | -38.97740 | 42554 ft | 403 kts | 221° |
| 2026-04-18 06:47 | 57.62943 | -39.04458 | 42554 ft | 403 kts | 221° |
| 2026-04-18 06:47 | 57.58625 | -39.11154 | 42555 ft | 403 kts | 221° |
| 2026-04-18 06:48 | 57.54303 | -39.17835 | 42556 ft | 403 kts | 221° |
| 2026-04-18 06:48 | 57.49979 | -39.24496 | 42557 ft | 403 kts | 221° |
| 2026-04-18 06:49 | 57.45681 | -39.31098 | 42558 ft | 403 kts | 221° |
| 2026-04-18 06:49 | 57.41352 | -39.37725 | 42559 ft | 403 kts | 221° |
| 2026-04-18 06:50 | 57.37017 | -39.44340 | 42560 ft | 403 kts | 221° |
| 2026-04-18 06:50 | 57.32683 | -39.50934 | 42561 ft | 403 kts | 221° |
| 2026-04-18 06:51 | 57.28340 | -39.57520 | 42562 ft | 403 kts | 221° |
| 2026-04-18 06:51 | 57.23999 | -39.64083 | 42563 ft | 403 kts | 221° |
| 2026-04-18 06:52 | 57.19641 | -39.70650 | 42564 ft | 403 kts | 221° |
| 2026-04-18 06:52 | 57.15291 | -39.77187 | 42565 ft | 403 kts | 221° |
| 2026-04-18 06:53 | 57.10962 | -39.83670 | 42566 ft | 403 kts | 221° |
| 2026-04-18 06:53 | 57.06605 | -39.90175 | 42568 ft | 403 kts | 221° |
| 2026-04-18 06:54 | 57.02265 | -39.96713 | 42569 ft | 403 kts | 223° |
| 2026-04-18 06:54 | 56.98152 | -40.03690 | 42570 ft | 402 kts | 225° |
| 2026-04-18 06:55 | 56.94167 | -40.10886 | 42571 ft | 402 kts | 226° |
| 2026-04-18 06:55 | 56.90220 | -40.18142 | 42572 ft | 402 kts | 226° |
| 2026-04-18 06:56 | 56.86285 | -40.25397 | 42573 ft | 402 kts | 226° |
| 2026-04-18 06:56 | 56.82369 | -40.32609 | 42574 ft | 402 kts | 226° |
| 2026-04-18 06:57 | 56.78407 | -40.39881 | 42576 ft | 402 kts | 226° |
| 2026-04-18 06:57 | 56.72510 | -40.50665 | 42577 ft | 402 kts | 226° |
| 2026-04-18 06:58 | 56.68555 | -40.57867 | 42579 ft | 402 kts | 226° |
| 2026-04-18 06:58 | 56.64601 | -40.65044 | 42580 ft | 401 kts | 226° |
| 2026-04-18 06:59 | 56.60641 | -40.72208 | 42581 ft | 401 kts | 226° |
| 2026-04-18 06:59 | 56.56678 | -40.79355 | 42583 ft | 401 kts | 226° |
| 2026-04-18 07:00 | 56.52717 | -40.86475 | 42584 ft | 401 kts | 226° |
| 2026-04-18 07:00 | 56.48752 | -40.93582 | 42586 ft | 401 kts | 226° |
| 2026-04-18 07:01 | 56.44779 | -41.00679 | 42587 ft | 401 kts | 226° |
| 2026-04-18 07:01 | 56.40802 | -41.07761 | 42588 ft | 401 kts | 226° |
| 2026-04-18 07:02 | 56.36826 | -41.14820 | 42590 ft | 401 kts | 226° |
| 2026-04-18 07:02 | 56.32847 | -41.21863 | 42601 ft | 401 kts | 226° |
| 2026-04-18 07:03 | 56.28862 | -41.28893 | 42618 ft | 400 kts | 226° |
| 2026-04-18 07:03 | 56.24903 | -41.35859 | 42621 ft | 401 kts | 226° |
| 2026-04-18 07:04 | 56.20912 | -41.42857 | 42623 ft | 401 kts | 226° |
| 2026-04-18 07:04 | 56.16917 | -41.49842 | 42624 ft | 401 kts | 226° |
| 2026-04-18 07:05 | 56.12919 | -41.56810 | 42626 ft | 400 kts | 226° |
| 2026-04-18 07:05 | 56.08920 | -41.63759 | 42627 ft | 400 kts | 226° |
| 2026-04-18 07:06 | 56.04916 | -41.70694 | 42629 ft | 400 kts | 225° |
| 2026-04-18 07:06 | 56.00911 | -41.77612 | 42631 ft | 400 kts | 225° |
| 2026-04-18 07:07 | 55.96904 | -41.84510 | 42633 ft | 400 kts | 225° |
| 2026-04-18 07:07 | 55.92902 | -41.91381 | 42634 ft | 400 kts | 225° |
| 2026-04-18 07:08 | 55.88884 | -41.98257 | 42636 ft | 400 kts | 225° |
| 2026-04-18 07:08 | 55.84872 | -42.05103 | 42638 ft | 400 kts | 225° |
| 2026-04-18 07:09 | 55.80850 | -42.11945 | 42640 ft | 400 kts | 225° |
| 2026-04-18 07:09 | 55.76849 | -42.18731 | 42642 ft | 400 kts | 225° |
| 2026-04-18 07:10 | 55.72790 | -42.25594 | 42644 ft | 400 kts | 225° |
| 2026-04-18 07:10 | 55.68781 | -42.32352 | 42646 ft | 400 kts | 225° |
| 2026-04-18 07:11 | 55.64741 | -42.39143 | 42648 ft | 400 kts | 225° |
| 2026-04-18 07:11 | 55.60696 | -42.45922 | 42650 ft | 400 kts | 225° |
| 2026-04-18 07:12 | 55.56648 | -42.52686 | 42652 ft | 400 kts | 225° |
| 2026-04-18 07:12 | 55.52596 | -42.59436 | 42654 ft | 400 kts | 225° |
| 2026-04-18 07:13 | 55.48536 | -42.66179 | 42656 ft | 400 kts | 225° |
| 2026-04-18 07:13 | 55.44493 | -42.72873 | 42658 ft | 401 kts | 225° |
| 2026-04-18 07:14 | 55.40399 | -42.79633 | 42661 ft | 401 kts | 225° |
| 2026-04-18 07:14 | 55.36326 | -42.86339 | 42663 ft | 401 kts | 225° |
| 2026-04-18 07:15 | 55.32270 | -42.92996 | 42665 ft | 401 kts | 225° |
| 2026-04-18 07:15 | 55.28177 | -42.99695 | 42667 ft | 402 kts | 225° |
| 2026-04-18 07:16 | 55.24082 | -43.06376 | 42670 ft | 402 kts | 225° |
| 2026-04-18 07:16 | 55.20671 | -43.11927 | 42672 ft | 402 kts | 225° |
| 2026-04-18 07:17 | 55.16572 | -43.18580 | 42674 ft | 402 kts | 225° |
| 2026-04-18 07:17 | 55.12459 | -43.25234 | 42677 ft | 402 kts | 225° |
| 2026-04-18 07:18 | 55.08345 | -43.31873 | 42681 ft | 402 kts | 225° |
| 2026-04-18 07:18 | 55.04230 | -43.38491 | 42684 ft | 402 kts | 225° |
| 2026-04-18 07:19 | 55.00110 | -43.45099 | 42686 ft | 402 kts | 225° |
| 2026-04-18 07:19 | 54.95979 | -43.51707 | 42689 ft | 403 kts | 225° |
| 2026-04-18 07:20 | 54.91844 | -43.58300 | 42691 ft | 403 kts | 225° |
| 2026-04-18 07:20 | 54.87704 | -43.64883 | 42694 ft | 403 kts | 225° |
| 2026-04-18 07:21 | 54.83562 | -43.71450 | 42697 ft | 403 kts | 225° |
| 2026-04-18 07:21 | 54.79431 | -43.77979 | 42700 ft | 404 kts | 225° |
| 2026-04-18 07:22 | 54.75276 | -43.84528 | 42702 ft | 404 kts | 225° |
| 2026-04-18 07:22 | 54.71115 | -43.91068 | 42705 ft | 404 kts | 225° |
| 2026-04-18 07:23 | 54.66947 | -43.97599 | 42708 ft | 404 kts | 225° |
| 2026-04-18 07:23 | 54.62772 | -44.04122 | 42711 ft | 404 kts | 225° |
| 2026-04-18 07:24 | 54.58594 | -44.10632 | 42714 ft | 404 kts | 225° |
| 2026-04-18 07:24 | 54.54414 | -44.17127 | 42717 ft | 404 kts | 225° |
| 2026-04-18 07:25 | 54.50225 | -44.23616 | 42720 ft | 405 kts | 225° |
| 2026-04-18 07:25 | 54.46038 | -44.30083 | 42723 ft | 405 kts | 225° |
| 2026-04-18 07:26 | 54.41844 | -44.36542 | 42726 ft | 405 kts | 225° |
| 2026-04-18 07:26 | 54.37671 | -44.42951 | 42729 ft | 405 kts | 224° |
| 2026-04-18 07:27 | 54.33469 | -44.49386 | 42732 ft | 405 kts | 224° |
| 2026-04-18 07:27 | 54.29258 | -44.55816 | 42735 ft | 405 kts | 224° |
| 2026-04-18 07:28 | 54.25047 | -44.62229 | 42738 ft | 405 kts | 224° |
| 2026-04-18 07:28 | 54.20826 | -44.68639 | 42741 ft | 405 kts | 224° |
| 2026-04-18 07:29 | 54.16607 | -44.75027 | 42744 ft | 406 kts | 224° |
| 2026-04-18 07:29 | 54.12401 | -44.81377 | 42747 ft | 406 kts | 224° |
| 2026-04-18 07:30 | 54.08166 | -44.87752 | 42751 ft | 406 kts | 224° |
| 2026-04-18 07:30 | 54.03931 | -44.94112 | 42754 ft | 406 kts | 224° |
| 2026-04-18 07:31 | 53.99650 | -45.00392 | 42757 ft | 406 kts | 223° |
| 2026-04-18 07:31 | 53.95316 | -45.06553 | 42761 ft | 406 kts | 223° |
| 2026-04-18 07:32 | 53.90967 | -45.12662 | 42764 ft | 406 kts | 223° |
| 2026-04-18 07:32 | 53.86606 | -45.18753 | 42769 ft | 406 kts | 223° |
| 2026-04-18 07:33 | 53.82244 | -45.24825 | 42774 ft | 406 kts | 223° |
| 2026-04-18 07:33 | 53.77881 | -45.30881 | 42778 ft | 406 kts | 223° |
| 2026-04-18 07:34 | 53.73500 | -45.36944 | 42781 ft | 406 kts | 223° |
| 2026-04-18 07:34 | 53.69133 | -45.42973 | 42786 ft | 406 kts | 223° |
| 2026-04-18 07:35 | 53.64761 | -45.48990 | 42874 ft | 404 kts | 223° |
| 2026-04-18 07:35 | 53.60424 | -45.54943 | 42968 ft | 403 kts | 223° |
| 2026-04-18 07:36 | 53.56071 | -45.60904 | 42984 ft | 403 kts | 223° |
| 2026-04-18 07:36 | 53.51731 | -45.66832 | 42988 ft | 404 kts | 223° |
| 2026-04-18 07:37 | 53.47351 | -45.72798 | 42991 ft | 405 kts | 223° |
| 2026-04-18 07:37 | 53.42964 | -45.78757 | 42994 ft | 405 kts | 223° |
| 2026-04-18 07:38 | 53.38570 | -45.84709 | 42997 ft | 406 kts | 223° |
| 2026-04-18 07:38 | 53.34165 | -45.90659 | 43000 ft | 407 kts | 223° |
| 2026-04-18 07:39 | 53.29760 | -45.96592 | 43003 ft | 407 kts | 223° |
| 2026-04-18 07:39 | 53.25363 | -46.02498 | 43006 ft | 407 kts | 223° |
| 2026-04-18 07:40 | 53.20943 | -46.08420 | 43008 ft | 407 kts | 223° |
| 2026-04-18 07:40 | 53.16521 | -46.14327 | 43011 ft | 407 kts | 223° |
| 2026-04-18 07:41 | 53.12090 | -46.20230 | 43014 ft | 407 kts | 223° |
| 2026-04-18 07:41 | 53.07672 | -46.26101 | 43017 ft | 407 kts | 223° |
| 2026-04-18 07:42 | 53.03265 | -46.31941 | 43019 ft | 407 kts | 223° |
| 2026-04-18 07:42 | 52.98834 | -46.37798 | 43022 ft | 407 kts | 223° |
| 2026-04-18 07:43 | 52.94394 | -46.43649 | 43025 ft | 407 kts | 223° |
| 2026-04-18 07:43 | 52.89963 | -46.49475 | 43027 ft | 407 kts | 223° |
| 2026-04-18 07:44 | 52.85516 | -46.55304 | 43030 ft | 406 kts | 223° |
| 2026-04-18 07:44 | 52.81116 | -46.61056 | 43032 ft | 406 kts | 223° |
| 2026-04-18 07:45 | 52.76679 | -46.66842 | 43034 ft | 406 kts | 223° |
| 2026-04-18 07:45 | 52.72230 | -46.72628 | 43037 ft | 406 kts | 223° |
| 2026-04-18 07:46 | 52.67782 | -46.78399 | 43039 ft | 406 kts | 222° |
| 2026-04-18 07:46 | 52.63341 | -46.84143 | 43041 ft | 407 kts | 222° |
| 2026-04-18 07:47 | 52.58878 | -46.89902 | 43051 ft | 407 kts | 222° |
| 2026-04-18 07:47 | 52.54424 | -46.95634 | 43055 ft | 407 kts | 222° |
| 2026-04-18 07:48 | 52.49957 | -47.01366 | 43057 ft | 407 kts | 222° |
| 2026-04-18 07:48 | 52.45483 | -47.07091 | 43060 ft | 408 kts | 222° |
| 2026-04-18 07:49 | 52.40998 | -47.12706 | 43062 ft | 409 kts | 221° |
| 2026-04-18 07:49 | 52.36400 | -47.18236 | 43064 ft | 408 kts | 222° |
| 2026-04-18 07:50 | 52.31939 | -47.23900 | 43066 ft | 408 kts | 223° |
| 2026-04-18 07:50 | 52.27474 | -47.29653 | 43068 ft | 408 kts | 223° |
| 2026-04-18 07:51 | 52.23012 | -47.35387 | 43070 ft | 408 kts | 223° |
| 2026-04-18 07:51 | 52.18530 | -47.41109 | 43073 ft | 408 kts | 223° |
| 2026-04-18 07:52 | 52.14040 | -47.46805 | 43075 ft | 408 kts | 223° |
| 2026-04-18 07:52 | 52.09575 | -47.52436 | 43077 ft | 408 kts | 223° |
| 2026-04-18 07:53 | 52.05074 | -47.58086 | 43078 ft | 409 kts | 223° |
| 2026-04-18 07:53 | 52.00575 | -47.63712 | 43080 ft | 409 kts | 222° |
| 2026-04-18 07:54 | 51.96058 | -47.69338 | 43082 ft | 408 kts | 223° |
| 2026-04-18 07:54 | 51.91542 | -47.74945 | 43084 ft | 409 kts | 222° |
| 2026-04-18 07:55 | 51.87777 | -47.79608 | 43085 ft | 409 kts | 222° |
| 2026-04-18 07:55 | 51.83254 | -47.85195 | 43087 ft | 409 kts | 222° |
| 2026-04-18 07:56 | 51.78719 | -47.90780 | 43089 ft | 409 kts | 222° |
| 2026-04-18 07:56 | 51.74175 | -47.96361 | 43090 ft | 409 kts | 222° |
| 2026-04-18 07:57 | 51.69634 | -48.01924 | 43092 ft | 409 kts | 222° |
| 2026-04-18 07:57 | 51.65121 | -48.07437 | 43093 ft | 409 kts | 222° |
| 2026-04-18 07:58 | 51.58316 | -48.15724 | 43096 ft | 408 kts | 222° |
| 2026-04-18 07:59 | 51.53784 | -48.21224 | 43097 ft | 408 kts | 222° |
| 2026-04-18 07:59 | 51.49250 | -48.26713 | 43098 ft | 407 kts | 222° |
| 2026-04-18 08:00 | 51.44725 | -48.32178 | 43100 ft | 407 kts | 222° |
| 2026-04-18 08:00 | 51.40202 | -48.37626 | 43101 ft | 406 kts | 222° |
| 2026-04-18 08:01 | 51.35712 | -48.43020 | 43102 ft | 405 kts | 222° |
| 2026-04-18 08:01 | 51.31195 | -48.48434 | 43103 ft | 405 kts | 222° |
| 2026-04-18 08:02 | 51.26671 | -48.53842 | 43105 ft | 405 kts | 222° |
| 2026-04-18 08:02 | 51.22156 | -48.59227 | 43106 ft | 404 kts | 222° |
| 2026-04-18 08:03 | 51.17650 | -48.64588 | 43107 ft | 404 kts | 222° |
| 2026-04-18 08:03 | 51.13150 | -48.69926 | 43108 ft | 403 kts | 222° |
| 2026-04-18 08:04 | 51.08651 | -48.75252 | 43109 ft | 402 kts | 222° |
| 2026-04-18 08:04 | 51.04186 | -48.80523 | 43110 ft | 402 kts | 222° |
| 2026-04-18 08:05 | 50.99697 | -48.85811 | 43111 ft | 401 kts | 222° |
| 2026-04-18 08:05 | 50.95208 | -48.91085 | 43111 ft | 401 kts | 222° |
| 2026-04-18 08:06 | 50.90712 | -48.96354 | 43112 ft | 401 kts | 222° |
| 2026-04-18 08:06 | 50.86225 | -49.01601 | 43113 ft | 400 kts | 222° |
| 2026-04-18 08:07 | 50.81740 | -49.06831 | 43114 ft | 400 kts | 222° |
| 2026-04-18 08:07 | 50.77256 | -49.12049 | 43114 ft | 400 kts | 222° |
| 2026-04-18 08:08 | 50.72808 | -49.17211 | 43115 ft | 399 kts | 222° |
| 2026-04-18 08:08 | 50.68329 | -49.22396 | 43116 ft | 399 kts | 222° |
| 2026-04-18 08:09 | 50.63852 | -49.27564 | 43116 ft | 398 kts | 222° |
| 2026-04-18 08:09 | 50.59376 | -49.32718 | 43117 ft | 398 kts | 222° |
| 2026-04-18 08:10 | 50.54899 | -49.37864 | 43117 ft | 398 kts | 222° |
| 2026-04-18 08:10 | 50.50424 | -49.42996 | 43118 ft | 398 kts | 222° |
| 2026-04-18 08:11 | 50.45956 | -49.48107 | 43118 ft | 397 kts | 222° |
| 2026-04-18 08:11 | 50.41508 | -49.53184 | 43119 ft | 397 kts | 222° |
| 2026-04-18 08:12 | 50.37040 | -49.58271 | 43119 ft | 397 kts | 222° |
| 2026-04-18 08:12 | 50.32571 | -49.63348 | 43119 ft | 396 kts | 223° |
| 2026-04-18 08:13 | 50.28104 | -49.68411 | 43126 ft | 396 kts | 222° |
| 2026-04-18 08:13 | 50.23643 | -49.73455 | 43130 ft | 395 kts | 223° |
| 2026-04-18 08:14 | 50.19180 | -49.78489 | 43130 ft | 395 kts | 223° |
| 2026-04-18 08:14 | 50.14750 | -49.83476 | 43131 ft | 395 kts | 223° |
| 2026-04-18 08:15 | 50.10293 | -49.88480 | 43131 ft | 395 kts | 223° |
| 2026-04-18 08:15 | 50.05836 | -49.93474 | 43131 ft | 394 kts | 223° |
| 2026-04-18 08:16 | 50.01505 | -49.98666 | 43131 ft | 389 kts | 229° |
| 2026-04-18 08:16 | 49.97778 | -50.04701 | 43131 ft | 385 kts | 234° |
| 2026-04-18 08:17 | 49.94323 | -50.11032 | 43132 ft | 384 kts | 236° |
| 2026-04-18 08:17 | 49.90947 | -50.17450 | 43132 ft | 383 kts | 236° |
| 2026-04-18 08:18 | 49.87596 | -50.23877 | 43157 ft | 383 kts | 236° |
| 2026-04-18 08:18 | 49.84249 | -50.30300 | 43164 ft | 383 kts | 236° |
| 2026-04-18 08:19 | 49.80892 | -50.36729 | 43165 ft | 384 kts | 236° |
| 2026-04-18 08:19 | 49.77444 | -50.43006 | 43165 ft | 388 kts | 231° |
| 2026-04-18 08:20 | 49.73417 | -50.48624 | 43165 ft | 391 kts | 226° |
| 2026-04-18 08:20 | 49.69199 | -50.53972 | 43165 ft | 392 kts | 225° |
| 2026-04-18 08:21 | 49.64960 | -50.59280 | 43165 ft | 392 kts | 225° |
| 2026-04-18 08:21 | 49.60733 | -50.64613 | 43165 ft | 392 kts | 225° |
| 2026-04-18 08:22 | 49.56514 | -50.69990 | 43165 ft | 393 kts | 226° |
| 2026-04-18 08:22 | 49.52317 | -50.75375 | 43165 ft | 393 kts | 226° |
| 2026-04-18 08:23 | 49.48126 | -50.80776 | 43165 ft | 393 kts | 226° |
| 2026-04-18 08:23 | 49.46055 | -50.83450 | 42852 ft | 395 kts | 226° |
| 2026-04-18 08:23 | 49.43964 | -50.86149 | 42386 ft | 390 kts | 226° |
| 2026-04-18 08:23 | 49.41892 | -50.88821 | 41932 ft | 386 kts | 226° |
| 2026-04-18 08:24 | 49.39841 | -50.91463 | 41480 ft | 382 kts | 227° |
| 2026-04-18 08:24 | 49.37812 | -50.94077 | 41030 ft | 379 kts | 227° |
| 2026-04-18 08:24 | 49.35805 | -50.96662 | 40580 ft | 375 kts | 227° |
| 2026-04-18 08:24 | 49.33815 | -50.99223 | 40129 ft | 371 kts | 227° |
| 2026-04-18 08:25 | 49.31847 | -51.01757 | 39679 ft | 368 kts | 227° |
| 2026-04-18 08:25 | 49.29895 | -51.04269 | 39229 ft | 364 kts | 228° |
| 2026-04-18 08:25 | 49.27964 | -51.06753 | 38778 ft | 361 kts | 228° |
| 2026-04-18 08:25 | 49.26049 | -51.09214 | 38327 ft | 357 kts | 228° |
| 2026-04-18 08:26 | 49.24154 | -51.11648 | 37876 ft | 353 kts | 229° |
| 2026-04-18 08:26 | 49.22277 | -51.14058 | 37429 ft | 349 kts | 229° |
| 2026-04-18 08:26 | 49.20423 | -51.16437 | 36981 ft | 346 kts | 229° |
| 2026-04-18 08:26 | 49.18591 | -51.18785 | 36532 ft | 342 kts | 229° |
| 2026-04-18 08:27 | 49.16769 | -51.21118 | 36080 ft | 339 kts | 229° |
| 2026-04-18 08:27 | 49.14972 | -51.23418 | 35630 ft | 336 kts | 229° |
| 2026-04-18 08:27 | 49.13212 | -51.25669 | 35186 ft | 332 kts | 229° |
| 2026-04-18 08:27 | 49.11447 | -51.27924 | 34736 ft | 329 kts | 230° |
| 2026-04-18 08:28 | 49.09694 | -51.30162 | 34284 ft | 326 kts | 230° |
| 2026-04-18 08:28 | 49.07956 | -51.32378 | 33833 ft | 323 kts | 230° |
| 2026-04-18 08:28 | 49.06239 | -51.34567 | 33382 ft | 320 kts | 230° |
| 2026-04-18 08:28 | 49.04533 | -51.36740 | 32931 ft | 317 kts | 230° |
| 2026-04-18 08:29 | 49.02850 | -51.38882 | 32481 ft | 314 kts | 230° |
| 2026-04-18 08:29 | 49.01179 | -51.41010 | 32038 ft | 311 kts | 230° |
| 2026-04-18 08:29 | 48.99541 | -51.43091 | 31594 ft | 308 kts | 229° |
| 2026-04-18 08:29 | 48.97899 | -51.45177 | 31144 ft | 306 kts | 229° |
| 2026-04-18 08:30 | 48.96271 | -51.47241 | 30694 ft | 303 kts | 229° |
| 2026-04-18 08:30 | 48.94652 | -51.49294 | 30243 ft | 301 kts | 229° |
| 2026-04-18 08:30 | 48.93049 | -51.51323 | 29793 ft | 299 kts | 229° |
| 2026-04-18 08:30 | 48.91454 | -51.53341 | 29342 ft | 297 kts | 229° |
| 2026-04-18 08:31 | 48.89868 | -51.55348 | 28891 ft | 296 kts | 229° |
| 2026-04-18 08:31 | 48.88283 | -51.57352 | 28440 ft | 296 kts | 229° |
| 2026-04-18 08:31 | 48.86699 | -51.59352 | 27990 ft | 296 kts | 229° |
| 2026-04-18 08:31 | 48.85114 | -51.61355 | 27540 ft | 297 kts | 229° |
| 2026-04-18 08:32 | 48.83524 | -51.63361 | 27089 ft | 298 kts | 229° |
| 2026-04-18 08:32 | 48.81929 | -51.65372 | 26646 ft | 298 kts | 229° |
| 2026-04-18 08:32 | 48.80329 | -51.67386 | 26199 ft | 299 kts | 229° |
| 2026-04-18 08:32 | 48.78720 | -51.69409 | 25749 ft | 301 kts | 229° |
| 2026-04-18 08:33 | 48.77125 | -51.71413 | 25308 ft | 302 kts | 228° |
| 2026-04-18 08:33 | 48.75502 | -51.73451 | 24860 ft | 304 kts | 228° |
| 2026-04-18 08:33 | 48.73866 | -51.75501 | 24409 ft | 305 kts | 228° |
| 2026-04-18 08:33 | 48.72224 | -51.77556 | 23959 ft | 307 kts | 228° |
| 2026-04-18 08:34 | 48.70570 | -51.79629 | 23518 ft | 309 kts | 228° |
| 2026-04-18 08:34 | 48.68910 | -51.81704 | 23075 ft | 310 kts | 228° |
| 2026-04-18 08:34 | 48.67242 | -51.83786 | 22625 ft | 311 kts | 228° |
| 2026-04-18 08:34 | 48.65565 | -51.85876 | 22175 ft | 313 kts | 228° |
| 2026-04-18 08:35 | 48.64451 | -51.87263 | 21877 ft | 314 kts | 228° |
| 2026-04-18 08:35 | 48.62764 | -51.89362 | 21427 ft | 315 kts | 227° |
| 2026-04-18 08:35 | 48.61069 | -51.91468 | 20976 ft | 315 kts | 227° |
| 2026-04-18 08:35 | 48.59369 | -51.93578 | 20525 ft | 316 kts | 227° |
| 2026-04-18 08:36 | 48.57668 | -51.95688 | 20076 ft | 317 kts | 227° |
| 2026-04-18 08:36 | 48.55404 | -51.98494 | 19479 ft | 318 kts | 227° |
| 2026-04-18 08:36 | 48.54251 | -51.99921 | 19175 ft | 316 kts | 227° |
| 2026-04-18 08:36 | 48.52562 | -52.02001 | 18723 ft | 309 kts | 228° |
| 2026-04-18 08:37 | 48.50907 | -52.04035 | 18272 ft | 304 kts | 228° |
| 2026-04-18 08:37 | 48.49277 | -52.06042 | 17821 ft | 301 kts | 228° |
| 2026-04-18 08:37 | 48.47663 | -52.08031 | 17370 ft | 299 kts | 228° |
| 2026-04-18 08:37 | 48.46061 | -52.10007 | 16920 ft | 297 kts | 228° |
| 2026-04-18 08:38 | 48.44464 | -52.11980 | 16470 ft | 297 kts | 228° |
| 2026-04-18 08:38 | 48.42866 | -52.13953 | 16019 ft | 297 kts | 227° |
| 2026-04-18 08:38 | 48.41264 | -52.15930 | 15567 ft | 297 kts | 227° |
| 2026-04-18 08:38 | 48.39661 | -52.17906 | 15117 ft | 298 kts | 227° |
| 2026-04-18 08:39 | 48.38055 | -52.19883 | 14666 ft | 299 kts | 227° |
| 2026-04-18 08:39 | 48.36448 | -52.21859 | 14217 ft | 299 kts | 227° |
| 2026-04-18 08:39 | 48.34827 | -52.23849 | 13765 ft | 300 kts | 226° |
| 2026-04-18 08:39 | 48.33207 | -52.25837 | 13315 ft | 301 kts | 226° |
| 2026-04-18 08:40 | 48.31581 | -52.27829 | 12865 ft | 302 kts | 226° |
| 2026-04-18 08:40 | 48.29949 | -52.29827 | 12415 ft | 303 kts | 226° |
| 2026-04-18 08:40 | 48.28311 | -52.31830 | 11964 ft | 304 kts | 226° |
| 2026-04-18 08:40 | 48.26666 | -52.33841 | 11513 ft | 305 kts | 225° |
| 2026-04-18 08:41 | 48.25033 | -52.35835 | 11068 ft | 307 kts | 225° |
| 2026-04-18 08:41 | 48.23346 | -52.37893 | 10612 ft | 310 kts | 225° |
| 2026-04-18 08:41 | 48.21665 | -52.39942 | 10252 ft | 310 kts | 225° |
| 2026-04-18 08:41 | 48.19995 | -52.41971 | 10159 ft | 310 kts | 225° |
| 2026-04-18 08:42 | 48.18320 | -52.44008 | 10061 ft | 311 kts | 225° |
| 2026-04-18 08:42 | 48.16639 | -52.46049 | 10014 ft | 311 kts | 225° |
| 2026-04-18 08:42 | 48.14963 | -52.48082 | 10005 ft | 309 kts | 225° |
| 2026-04-18 08:42 | 48.13290 | -52.50109 | 10000 ft | 308 kts | 225° |
| 2026-04-18 08:43 | 48.11624 | -52.52127 | 10002 ft | 307 kts | 225° |
| 2026-04-18 08:43 | 48.09963 | -52.54137 | 10001 ft | 307 kts | 225° |
| 2026-04-18 08:43 | 48.08307 | -52.56138 | 10001 ft | 306 kts | 225° |
| 2026-04-18 08:43 | 48.06647 | -52.58146 | 10001 ft | 306 kts | 225° |
| 2026-04-18 08:44 | 48.04995 | -52.60140 | 10001 ft | 306 kts | 225° |
| 2026-04-18 08:44 | 48.03337 | -52.62140 | 10000 ft | 306 kts | 225° |
| 2026-04-18 08:44 | 48.01702 | -52.64112 | 10000 ft | 306 kts | 225° |
| 2026-04-18 08:44 | 48.00047 | -52.66105 | 10000 ft | 306 kts | 225° |
| 2026-04-18 08:45 | 47.98390 | -52.68100 | 10000 ft | 306 kts | 225° |
| 2026-04-18 08:45 | 47.96729 | -52.70097 | 10000 ft | 306 kts | 225° |
| 2026-04-18 08:45 | 47.95079 | -52.72078 | 9998 ft | 296 kts | 225° |
| 2026-04-18 08:45 | 47.93515 | -52.73936 | 9962 ft | 279 kts | 225° |
| 2026-04-18 08:46 | 47.92031 | -52.75700 | 9903 ft | 267 kts | 226° |
| 2026-04-18 08:46 | 47.90588 | -52.77424 | 9620 ft | 263 kts | 226° |
| 2026-04-18 08:46 | 47.89179 | -52.79113 | 9269 ft | 257 kts | 226° |
| 2026-04-18 08:46 | 47.87799 | -52.80769 | 8919 ft | 253 kts | 226° |
| 2026-04-18 08:47 | 47.86435 | -52.82408 | 8566 ft | 251 kts | 226° |
| 2026-04-18 08:47 | 47.85086 | -52.84028 | 8217 ft | 249 kts | 226° |
| 2026-04-18 08:47 | 47.83736 | -52.85646 | 7865 ft | 247 kts | 226° |
| 2026-04-18 08:47 | 47.82399 | -52.87247 | 7515 ft | 246 kts | 226° |
| 2026-04-18 08:48 | 47.81065 | -52.88843 | 7164 ft | 246 kts | 226° |
| 2026-04-18 08:48 | 47.79733 | -52.90435 | 6814 ft | 245 kts | 226° |
| 2026-04-18 08:48 | 47.78405 | -52.92019 | 6464 ft | 245 kts | 226° |
| 2026-04-18 08:48 | 47.77076 | -52.93604 | 6113 ft | 245 kts | 226° |
| 2026-04-18 08:49 | 47.75746 | -52.95187 | 5762 ft | 245 kts | 226° |
| 2026-04-18 08:49 | 47.74416 | -52.96769 | 5412 ft | 245 kts | 226° |
| 2026-04-18 08:49 | 47.73086 | -52.98351 | 5061 ft | 245 kts | 226° |
| 2026-04-18 08:49 | 47.71767 | -52.99914 | 4914 ft | 238 kts | 225° |
| 2026-04-18 08:50 | 47.70281 | -53.00992 | 4822 ft | 245 kts | 194° |
| 2026-04-18 08:50 | 47.68604 | -53.00575 | 4748 ft | 250 kts | 155° |
| 2026-04-18 08:50 | 47.67224 | -52.99056 | 4694 ft | 252 kts | 137° |
| 2026-04-18 08:50 | 47.66004 | -52.97182 | 4624 ft | 253 kts | 131° |
| 2026-04-18 08:51 | 47.64820 | -52.95244 | 4600 ft | 251 kts | 131° |
| 2026-04-18 08:51 | 47.63644 | -52.93376 | 4648 ft | 245 kts | 133° |
| 2026-04-18 08:51 | 47.62457 | -52.91608 | 4701 ft | 239 kts | 136° |
| 2026-04-18 08:51 | 47.61254 | -52.89913 | 4721 ft | 236 kts | 137° |
| 2026-04-18 08:52 | 47.60045 | -52.88275 | 4735 ft | 235 kts | 138° |
| 2026-04-18 08:52 | 47.58830 | -52.86664 | 4750 ft | 233 kts | 138° |
| 2026-04-18 08:52 | 47.57643 | -52.85075 | 4765 ft | 233 kts | 138° |
| 2026-04-18 08:52 | 47.56407 | -52.83411 | 4456 ft | 247 kts | 137° |
| 2026-04-18 08:53 | 47.55101 | -52.81657 | 4121 ft | 258 kts | 137° |
| 2026-04-18 08:53 | 47.53770 | -52.79889 | 3769 ft | 256 kts | 138° |
| 2026-04-18 08:53 | 47.52446 | -52.78153 | 3421 ft | 253 kts | 137° |
| 2026-04-18 08:53 | 47.51121 | -52.76446 | 3081 ft | 251 kts | 137° |
| 2026-04-18 08:54 | 47.49816 | -52.74789 | 2937 ft | 241 kts | 137° |
| 2026-04-18 08:54 | 47.48562 | -52.73241 | 2864 ft | 231 kts | 139° |
| 2026-04-18 08:54 | 47.47340 | -52.71785 | 2829 ft | 219 kts | 139° |
| 2026-04-18 08:54 | 47.46181 | -52.70390 | 2829 ft | 210 kts | 139° |
| 2026-04-18 08:55 | 47.45088 | -52.69050 | 2884 ft | 199 kts | 138° |
| 2026-04-18 08:55 | 47.44081 | -52.67742 | 2970 ft | 186 kts | 128° |
| 2026-04-18 08:55 | 47.43680 | -52.66108 | 2987 ft | 161 kts | 72° |
| 2026-04-18 08:55 | 47.44108 | -52.64736 | 3036 ft | 142 kts | 41° |
| 2026-04-18 08:56 | 47.44745 | -52.63616 | 3010 ft | 143 kts | 36° |
| 2026-04-18 08:56 | 47.45414 | -52.62524 | 3001 ft | 144 kts | 36° |
| 2026-04-18 08:56 | 47.46082 | -52.61415 | 2993 ft | 145 kts | 36° |
| 2026-04-18 08:56 | 47.46754 | -52.60281 | 2929 ft | 149 kts | 37° |
| 2026-04-18 08:57 | 47.48280 | -52.58294 | 2727 ft | 135 kts | 10° |
| 2026-04-18 08:57 | 47.49129 | -52.58262 | 2619 ft | 115 kts | 341° |
| 2026-04-18 08:57 | 47.49792 | -52.58821 | 2516 ft | 108 kts | 323° |
| 2026-04-18 08:58 | 47.50347 | -52.59521 | 2408 ft | 103 kts | 321° |
| 2026-04-18 08:58 | 47.50863 | -52.60184 | 2317 ft | 96 kts | 322° |
| 2026-04-18 08:58 | 47.51374 | -52.60836 | 2220 ft | 97 kts | 322° |
| 2026-04-18 08:58 | 47.51883 | -52.61487 | 2143 ft | 97 kts | 322° |
| 2026-04-18 08:59 | 47.52392 | -52.62137 | 2068 ft | 97 kts | 322° |
| 2026-04-18 08:59 | 47.52901 | -52.62787 | 1992 ft | 97 kts | 322° |
| 2026-04-18 08:59 | 47.53411 | -52.63438 | 1917 ft | 97 kts | 322° |
| 2026-04-18 08:59 | 47.53924 | -52.64093 | 1843 ft | 97 kts | 322° |
| 2026-04-18 09:00 | 47.54437 | -52.64749 | 1767 ft | 98 kts | 322° |
| 2026-04-18 09:00 | 47.54952 | -52.65407 | 1693 ft | 98 kts | 322° |
| 2026-04-18 09:00 | 47.55470 | -52.66069 | 1617 ft | 99 kts | 322° |
| 2026-04-18 09:00 | 47.55991 | -52.66735 | 1543 ft | 99 kts | 322° |
| 2026-04-18 09:01 | 47.56506 | -52.67391 | 1487 ft | 98 kts | 323° |
| 2026-04-18 09:01 | 47.57041 | -52.68133 | 1388 ft | 114 kts | 321° |
| 2026-04-18 09:01 | 47.57659 | -52.68957 | 1300 ft | 121 kts | 322° |
| 2026-04-18 09:01 | 47.58310 | -52.69773 | 1136 ft | 121 kts | 326° |
| 2026-04-18 09:02 | 47.58923 | -52.70518 | 1107 ft | 112 kts | 321° |
| 2026-04-18 09:02 | 47.59493 | -52.71272 | 946 ft | 105 kts | 323° |
| 2026-04-18 09:02 | 47.60053 | -52.72001 | 804 ft | 110 kts | 323° |
| 2026-04-18 09:02 | 47.60660 | -52.72738 | 665 ft | 116 kts | 322° |
| 2026-04-18 09:03 | 47.61256 | -52.73502 | 508 ft | 111 kts | 325° |
| 2026-04-18 09:03 | 47.61778 | -52.74177 | 468 ft | 87 kts | 323° |
| 2026-04-18 09:03 | 47.62116 | -52.74604 | 465 ft | 29 kts | 320° |
| 2026-04-18 09:03 | 47.62179 | -52.74684 | 465 ft | 9 kts | 320° |
| 2026-04-18 09:04 | 47.62233 | -52.74752 | 465 ft | 11 kts | 320° |
| 2026-04-18 09:04 | 47.62300 | -52.74833 | 465 ft | 13 kts | 321° |
| 2026-04-18 09:04 | 47.62347 | -52.74923 | 465 ft | 7 kts | 310° |
| 2026-04-18 09:04 | 47.62362 | -52.74887 | 465 ft | 8 kts | 136° |
| 2026-04-18 09:05 | 47.62305 | -52.74817 | 465 ft | 13 kts | 139° |
| 2026-04-18 09:05 | 47.62226 | -52.74714 | 465 ft | 17 kts | 138° |
| 2026-04-18 09:05 | 47.62124 | -52.74581 | 465 ft | 22 kts | 145° |
| 2026-04-18 09:05 | 47.61998 | -52.74426 | 465 ft | 26 kts | 139° |
| 2026-04-18 09:06 | 47.61855 | -52.74235 | 465 ft | 30 kts | 137° |
| 2026-04-18 09:06 | 47.61713 | -52.74052 | 465 ft | 20 kts | 141° |
| 2026-04-18 09:06 | 47.61610 | -52.73926 | 465 ft | 17 kts | 142° |
| 2026-04-18 09:06 | 47.61560 | -52.73855 | 465 ft | 7 kts | 75° |
| 2026-04-18 09:07 | 47.61607 | -52.73849 | 465 ft | 9 kts | 2° |
| 2026-04-18 09:07 | 47.61654 | -52.73794 | 465 ft | 9 kts | 57° |
| 2026-04-18 09:07 | 47.61717 | -52.73742 | 465 ft | 10 kts | 15° |
| 2026-04-18 09:07 | 47.61785 | -52.73741 | 465 ft | 11 kts | 355° |
| 2026-04-18 09:08 | 47.61845 | -52.73737 | 465 ft | 9 kts | 49° |
| 2026-04-18 09:08 | 47.61851 | -52.73658 | 465 ft | 5 kts | 87° |
| 2026-04-18 09:08 | 47.61851 | -52.73655 | 465 ft | 0 kts | 87° |